»·PEaware :: N1CE KAJO-KVCV

N1CE :: KAJO-KVCV

FLIGHT INFORMATION

Flight Status: Arrived
Operator: Privately registered:
United States
More flights under this callsign
Pilot: Shay T. (30528)
Aircraft: CESSNA 172 SKYHAWK
(C172)
More flights by this aircraft type
Origin: KAJO Corona Mun
United States
Destination: KVCV Socal Logistics
United States
More flights between these airports :: More routes between these airports
Route: PDZ V442 APLES
File this flight plan on PilotEdge
Remarks:
Altitude:
(Current/Filed)
11,000ft
Speed:
(Current/Filed)
100kts
Departed: 09-Oct-20 07:10 PM
Arrived: 09-Oct-20 08:20 PM
Distance/Time
Traveled:
43nm/1:09
Distance/Time
To Go:
Arrived

Flight Plot

Page will automatically refresh every two minutes.


Map Options




Map Legend


Flown Route
Filed Route
Departure Airport
Arrival Airport
Navaid (VOR, NDB)
Fix

Horizontal Profiles

Position Reports

Time Latitude Longitude Heading Altitude Ground
Speed
09-Oct-20 19:07 33.897154 -117.607301 3 537ft 0kts
09-Oct-20 19:08 33.897154 -117.607301 3 537ft 0kts
09-Oct-20 19:09 33.896929 -117.589911 91 1053ft 81kts
09-Oct-20 19:10 33.905627 -117.565516 66 2099ft 83kts
09-Oct-20 19:11 33.915999 -117.541250 63 3114ft 82kts
09-Oct-20 19:12 33.928935 -117.519036 46 4032ft 84kts
09-Oct-20 19:13 33.950297 -117.492386 50 4000ft 125kts
09-Oct-20 19:14 33.969065 -117.503286 236 3960ft 120kts
09-Oct-20 19:15 33.937224 -117.506150 186 3947ft 119kts
09-Oct-20 19:16 33.916087 -117.534197 224 4112ft 117kts
09-Oct-20 19:17 33.923637 -117.557810 6 4057ft 121kts
09-Oct-20 19:18 33.948825 -117.531085 41 4078ft 121kts
09-Oct-20 19:19 33.969583 -117.505574 82 4800ft 90kts
09-Oct-20 19:20 33.952307 -117.500890 156 5799ft 76kts
09-Oct-20 19:21 33.934768 -117.509150 237 6670ft 73kts
09-Oct-20 19:22 33.921998 -117.528418 225 7464ft 75kts
09-Oct-20 19:23 33.924996 -117.541511 42 8197ft 77kts
09-Oct-20 19:24 33.937127 -117.520556 26 8918ft 79kts
09-Oct-20 19:25 33.960357 -117.502950 30 9017ft 117kts
09-Oct-20 19:26 33.990946 -117.485880 28 8970ft 121kts
09-Oct-20 19:27 34.020723 -117.465938 25 8969ft 122kts
09-Oct-20 19:28 34.050968 -117.446961 25 8975ft 121kts
09-Oct-20 19:29 34.081564 -117.428808 28 8948ft 122kts
09-Oct-20 19:30 34.110707 -117.410879 27 9361ft 114kts
09-Oct-20 19:31 34.138905 -117.392757 24 9708ft 115kts
09-Oct-20 19:32 34.167859 -117.375447 24 10039ft 116kts
09-Oct-20 19:33 34.197602 -117.362287 24 10433ft 113kts
09-Oct-20 19:34 34.224887 -117.343058 27 10801ft 113kts
09-Oct-20 19:35 34.254525 -117.327449 28 10927ft 121kts
09-Oct-20 19:37 34.283372 -117.307899 27 10971ft 120kts
09-Oct-20 19:38 34.313013 -117.289324 29 10947ft 119kts
09-Oct-20 19:39 34.341381 -117.269836 34 10939ft 115kts
09-Oct-20 19:40 34.368517 -117.249967 21 10951ft 114kts
09-Oct-20 19:41 34.397689 -117.235158 29 10959ft 115kts
09-Oct-20 19:42 34.425394 -117.215997 25 10976ft 114kts
09-Oct-20 19:43 34.453826 -117.198983 21 10984ft 114kts
09-Oct-20 19:44 34.482617 -117.182679 28 10993ft 114kts
09-Oct-20 19:45 34.510876 -117.165034 25 11005ft 114kts
09-Oct-20 19:46 34.539347 -117.147505 23 11011ft 114kts
09-Oct-20 19:47 34.569767 -117.139081 4 10579ft 112kts
09-Oct-20 19:48 34.600390 -117.135209 1 9516ft 112kts
09-Oct-20 19:49 34.630220 -117.140829 336 8504ft 108kts
09-Oct-20 19:50 34.657603 -117.155407 335 7509ft 107kts
09-Oct-20 19:51 34.684759 -117.171138 326 6975ft 111kts
09-Oct-20 19:52 34.709107 -117.195013 323 7033ft 113kts
09-Oct-20 19:53 34.734170 -117.219289 326 6738ft 114kts
09-Oct-20 19:54 34.754330 -117.245989 307 6701ft 108kts
09-Oct-20 19:55 34.769081 -117.276741 302 6641ft 90kts
09-Oct-20 19:55 34.779164 -117.302417 289 6223ft 105kts
09-Oct-20 19:57 34.786314 -117.342222 251 5277ft 109kts
09-Oct-20 19:57 34.766322 -117.356729 195 5248ft 98kts
09-Oct-20 19:59 34.741442 -117.379587 201 4474ft 97kts
09-Oct-20 19:59 34.717363 -117.383202 188 4384ft 106kts
09-Oct-20 20:00 34.688017 -117.387244 183 4280ft 100kts
09-Oct-20 20:01 34.663107 -117.387503 177 3459ft 84kts
09-Oct-20 20:02 34.637524 -117.386244 182 3323ft 90kts
09-Oct-20 20:03 34.611298 -117.387537 178 3596ft 105kts
09-Oct-20 20:04 34.585922 -117.398618 224 4339ft 95kts
09-Oct-20 20:05 34.588412 -117.424987 325 5130ft 96kts
09-Oct-20 20:06 34.603910 -117.450096 292 5940ft 93kts
09-Oct-20 20:07 34.613109 -117.485165 286 6045ft 114kts
09-Oct-20 20:08 34.622785 -117.523027 289 6022ft 118kts
09-Oct-20 20:09 34.635386 -117.559789 297 6020ft 118kts
09-Oct-20 20:10 34.656612 -117.577105 62 5308ft 112kts
09-Oct-20 20:11 34.650573 -117.544137 121 4124ft 102kts
09-Oct-20 20:12 34.636930 -117.510885 106 3955ft 111kts
09-Oct-20 20:13 34.631949 -117.473898 97 3964ft 109kts
09-Oct-20 20:14 34.635027 -117.437054 86 3993ft 108kts
09-Oct-20 20:15 34.641389 -117.401128 87 4027ft 109kts
09-Oct-20 20:16 34.635066 -117.366340 121 3785ft 100kts
09-Oct-20 20:17 34.619792 -117.349073 158 3299ft 70kts
09-Oct-20 20:18 34.605065 -117.361217 224 2918ft 67kts
09-Oct-20 20:19 34.595704 -117.372207 224 2860ft 28kts
09-Oct-20 20:20 34.594000 -117.372742 181 2863ft 0kts
09-Oct-20 20:21 34.588628 -117.375555 255 2875ft 0kts
09-Oct-20 20:22 34.588628 -117.375555 255 2875ft 0kts

Navigation Log

Ident Type
Flight plan parsing failed, navigation log unavailable